sensor_id;sensor_type;location;lat;lon;timestamp;P1;durP1;ratioP1;P2;durP2;ratioP2
75847;SDS011;65750;47.540;19.090;2023-05-24T00:01:31;6.25;;;4.50;;
75847;SDS011;65750;47.540;19.090;2023-05-24T00:03:59;6.00;;;4.10;;
75847;SDS011;65750;47.540;19.090;2023-05-24T00:06:26;6.68;;;4.05;;
75847;SDS011;65750;47.540;19.090;2023-05-24T00:08:53;6.78;;;4.15;;
75847;SDS011;65750;47.540;19.090;2023-05-24T00:11:20;8.03;;;4.50;;
75847;SDS011;65750;47.540;19.090;2023-05-24T00:13:48;5.43;;;4.40;;
75847;SDS011;65750;47.540;19.090;2023-05-24T00:16:15;5.60;;;3.80;;
75847;SDS011;65750;47.540;19.090;2023-05-24T00:18:43;5.25;;;4.20;;
75847;SDS011;65750;47.540;19.090;2023-05-24T00:21:11;5.05;;;3.75;;
75847;SDS011;65750;47.540;19.090;2023-05-24T00:23:38;6.20;;;4.33;;
75847;SDS011;65750;47.540;19.090;2023-05-24T00:26:06;7.10;;;4.18;;
75847;SDS011;65750;47.540;19.090;2023-05-24T00:28:34;6.47;;;4.43;;
75847;SDS011;65750;47.540;19.090;2023-05-24T00:31:01;5.53;;;3.65;;
75847;SDS011;65750;47.540;19.090;2023-05-24T00:33:28;6.12;;;4.07;;
75847;SDS011;65750;47.540;19.090;2023-05-24T00:35:57;5.87;;;4.03;;
75847;SDS011;65750;47.540;19.090;2023-05-24T00:38:24;5.05;;;3.85;;
75847;SDS011;65750;47.540;19.090;2023-05-24T00:40:52;5.50;;;3.92;;
75847;SDS011;65750;47.540;19.090;2023-05-24T00:43:20;5.72;;;3.72;;
75847;SDS011;65750;47.540;19.090;2023-05-24T00:45:48;4.75;;;3.85;;
75847;SDS011;65750;47.540;19.090;2023-05-24T00:48:27;5.37;;;4.17;;
75847;SDS011;65750;47.540;19.090;2023-05-24T00:50:54;4.82;;;3.92;;
75847;SDS011;65750;47.540;19.090;2023-05-24T00:53:22;5.05;;;3.87;;
75847;SDS011;65750;47.540;19.090;2023-05-24T00:55:50;5.10;;;4.05;;
75847;SDS011;65750;47.540;19.090;2023-05-24T00:58:17;4.93;;;3.83;;
75847;SDS011;65750;47.540;19.090;2023-05-24T01:00:44;5.33;;;3.90;;
75847;SDS011;65750;47.540;19.090;2023-05-24T01:03:14;4.32;;;3.50;;
75847;SDS011;65750;47.540;19.090;2023-05-24T01:05:42;5.20;;;4.03;;
75847;SDS011;65750;47.540;19.090;2023-05-24T01:08:09;5.25;;;3.87;;
75847;SDS011;65750;47.540;19.090;2023-05-24T01:10:46;6.43;;;4.50;;
75847;SDS011;65750;47.540;19.090;2023-05-24T01:13:19;5.17;;;3.83;;
75847;SDS011;65750;47.540;19.090;2023-05-24T01:15:50;6.20;;;4.28;;
75847;SDS011;65750;47.540;19.090;2023-05-24T01:18:28;5.78;;;4.05;;
75847;SDS011;65750;47.540;19.090;2023-05-24T01:20:59;7.03;;;4.45;;
75847;SDS011;65750;47.540;19.090;2023-05-24T01:23:37;5.03;;;4.05;;
75847;SDS011;65750;47.540;19.090;2023-05-24T01:26:18;4.90;;;3.83;;
75847;SDS011;65750;47.540;19.090;2023-05-24T01:28:48;4.85;;;3.80;;
75847;SDS011;65750;47.540;19.090;2023-05-24T01:31:15;5.15;;;3.92;;
75847;SDS011;65750;47.540;19.090;2023-05-24T01:33:44;5.72;;;4.10;;
75847;SDS011;65750;47.540;19.090;2023-05-24T01:36:11;4.78;;;4.05;;
75847;SDS011;65750;47.540;19.090;2023-05-24T01:38:38;5.20;;;3.93;;
75847;SDS011;65750;47.540;19.090;2023-05-24T01:41:09;4.82;;;4.03;;
75847;SDS011;65750;47.540;19.090;2023-05-24T01:43:42;5.03;;;4.15;;
75847;SDS011;65750;47.540;19.090;2023-05-24T01:46:18;4.70;;;3.80;;
75847;SDS011;65750;47.540;19.090;2023-05-24T01:48:53;4.93;;;3.85;;
75847;SDS011;65750;47.540;19.090;2023-05-24T01:51:26;5.83;;;4.20;;
75847;SDS011;65750;47.540;19.090;2023-05-24T01:53:57;5.28;;;3.90;;
75847;SDS011;65750;47.540;19.090;2023-05-24T01:56:24;5.12;;;4.07;;
75847;SDS011;65750;47.540;19.090;2023-05-24T01:58:54;4.82;;;3.87;;
75847;SDS011;65750;47.540;19.090;2023-05-24T02:01:22;4.40;;;3.62;;
75847;SDS011;65750;47.540;19.090;2023-05-24T02:03:51;5.80;;;3.80;;
75847;SDS011;65750;47.540;19.090;2023-05-24T02:06:18;5.25;;;3.70;;
75847;SDS011;65750;47.540;19.090;2023-05-24T02:08:46;5.32;;;4.00;;
75847;SDS011;65750;47.540;19.090;2023-05-24T02:11:13;5.12;;;3.72;;
75847;SDS011;65750;47.540;19.090;2023-05-24T02:13:40;5.10;;;3.78;;
75847;SDS011;65750;47.540;19.090;2023-05-24T02:16:08;5.10;;;3.90;;
75847;SDS011;65750;47.540;19.090;2023-05-24T02:18:36;6.55;;;3.90;;
75847;SDS011;65750;47.540;19.090;2023-05-24T02:21:03;5.70;;;3.95;;
75847;SDS011;65750;47.540;19.090;2023-05-24T02:23:30;5.45;;;3.78;;
75847;SDS011;65750;47.540;19.090;2023-05-24T02:25:58;5.18;;;3.75;;
75847;SDS011;65750;47.540;19.090;2023-05-24T02:28:25;5.43;;;4.10;;
75847;SDS011;65750;47.540;19.090;2023-05-24T02:30:54;5.10;;;3.97;;
75847;SDS011;65750;47.540;19.090;2023-05-24T02:33:23;5.85;;;3.95;;
75847;SDS011;65750;47.540;19.090;2023-05-24T02:35:50;6.05;;;3.87;;
75847;SDS011;65750;47.540;19.090;2023-05-24T02:38:18;5.22;;;3.70;;
75847;SDS011;65750;47.540;19.090;2023-05-24T02:40:45;5.73;;;4.07;;
75847;SDS011;65750;47.540;19.090;2023-05-24T02:43:12;5.15;;;4.07;;
75847;SDS011;65750;47.540;19.090;2023-05-24T02:45:39;5.07;;;4.00;;
75847;SDS011;65750;47.540;19.090;2023-05-24T02:48:07;5.78;;;4.20;;
75847;SDS011;65750;47.540;19.090;2023-05-24T02:50:35;4.70;;;3.67;;
75847;SDS011;65750;47.540;19.090;2023-05-24T02:53:02;4.77;;;3.87;;
75847;SDS011;65750;47.540;19.090;2023-05-24T02:55:30;7.43;;;4.00;;
75847;SDS011;65750;47.540;19.090;2023-05-24T02:57:58;6.80;;;4.05;;
75847;SDS011;65750;47.540;19.090;2023-05-24T03:00:26;5.57;;;3.97;;
75847;SDS011;65750;47.540;19.090;2023-05-24T03:02:53;5.65;;;3.60;;
75847;SDS011;65750;47.540;19.090;2023-05-24T03:05:21;6.53;;;3.90;;
75847;SDS011;65750;47.540;19.090;2023-05-24T03:07:50;5.00;;;3.92;;
75847;SDS011;65750;47.540;19.090;2023-05-24T03:10:18;5.65;;;4.55;;
75847;SDS011;65750;47.540;19.090;2023-05-24T03:12:45;5.75;;;4.10;;
75847;SDS011;65750;47.540;19.090;2023-05-24T03:15:13;5.50;;;4.45;;
75847;SDS011;65750;47.540;19.090;2023-05-24T03:17:40;5.30;;;4.20;;
75847;SDS011;65750;47.540;19.090;2023-05-24T03:20:07;5.05;;;4.05;;
75847;SDS011;65750;47.540;19.090;2023-05-24T03:22:36;5.07;;;3.67;;
75847;SDS011;65750;47.540;19.090;2023-05-24T03:25:05;6.62;;;4.28;;
75847;SDS011;65750;47.540;19.090;2023-05-24T03:27:33;6.07;;;4.10;;
75847;SDS011;65750;47.540;19.090;2023-05-24T03:30:01;5.80;;;4.10;;
75847;SDS011;65750;47.540;19.090;2023-05-24T03:32:32;5.72;;;4.20;;
75847;SDS011;65750;47.540;19.090;2023-05-24T03:35:00;6.22;;;3.97;;
75847;SDS011;65750;47.540;19.090;2023-05-24T03:37:27;6.72;;;4.12;;
75847;SDS011;65750;47.540;19.090;2023-05-24T03:39:55;6.03;;;4.60;;
75847;SDS011;65750;47.540;19.090;2023-05-24T03:42:24;4.90;;;4.20;;
75847;SDS011;65750;47.540;19.090;2023-05-24T03:44:51;4.90;;;4.00;;
75847;SDS011;65750;47.540;19.090;2023-05-24T03:47:19;6.53;;;4.53;;
75847;SDS011;65750;47.540;19.090;2023-05-24T03:49:46;5.18;;;4.05;;
75847;SDS011;65750;47.540;19.090;2023-05-24T03:52:13;5.85;;;4.72;;
75847;SDS011;65750;47.540;19.090;2023-05-24T03:54:41;5.63;;;4.30;;
75847;SDS011;65750;47.540;19.090;2023-05-24T03:57:10;5.72;;;4.37;;
75847;SDS011;65750;47.540;19.090;2023-05-24T03:59:38;8.10;;;4.37;;
75847;SDS011;65750;47.540;19.090;2023-05-24T04:02:05;6.70;;;4.20;;
75847;SDS011;65750;47.540;19.090;2023-05-24T04:04:33;5.93;;;4.43;;
75847;SDS011;65750;47.540;19.090;2023-05-24T04:07:01;5.73;;;4.23;;
75847;SDS011;65750;47.540;19.090;2023-05-24T04:09:28;5.55;;;3.47;;
75847;SDS011;65750;47.540;19.090;2023-05-24T04:11:56;5.93;;;4.60;;
75847;SDS011;65750;47.540;19.090;2023-05-24T04:14:23;5.93;;;4.28;;
75847;SDS011;65750;47.540;19.090;2023-05-24T04:16:52;6.53;;;4.82;;
75847;SDS011;65750;47.540;19.090;2023-05-24T04:19:19;5.73;;;4.40;;
75847;SDS011;65750;47.540;19.090;2023-05-24T04:21:46;5.62;;;4.07;;
75847;SDS011;65750;47.540;19.090;2023-05-24T04:24:14;5.28;;;3.78;;
75847;SDS011;65750;47.540;19.090;2023-05-24T04:26:42;5.80;;;4.30;;
75847;SDS011;65750;47.540;19.090;2023-05-24T04:29:10;7.25;;;4.55;;
75847;SDS011;65750;47.540;19.090;2023-05-24T04:31:37;7.53;;;4.53;;
75847;SDS011;65750;47.540;19.090;2023-05-24T04:34:09;5.97;;;3.85;;
75847;SDS011;65750;47.540;19.090;2023-05-24T04:36:38;6.70;;;4.30;;
75847;SDS011;65750;47.540;19.090;2023-05-24T04:39:07;6.15;;;4.60;;
75847;SDS011;65750;47.540;19.090;2023-05-24T04:41:36;5.78;;;4.20;;
75847;SDS011;65750;47.540;19.090;2023-05-24T04:44:03;7.27;;;4.40;;
75847;SDS011;65750;47.540;19.090;2023-05-24T04:46:30;5.30;;;4.20;;
75847;SDS011;65750;47.540;19.090;2023-05-24T04:49:00;6.35;;;4.57;;
75847;SDS011;65750;47.540;19.090;2023-05-24T04:51:28;6.15;;;4.62;;
75847;SDS011;65750;47.540;19.090;2023-05-24T04:53:55;7.78;;;5.05;;
75847;SDS011;65750;47.540;19.090;2023-05-24T04:56:23;6.83;;;4.70;;
75847;SDS011;65750;47.540;19.090;2023-05-24T04:58:50;6.32;;;4.65;;
75847;SDS011;65750;47.540;19.090;2023-05-24T05:01:17;5.93;;;4.80;;
75847;SDS011;65750;47.540;19.090;2023-05-24T05:03:44;5.87;;;4.22;;
75847;SDS011;65750;47.540;19.090;2023-05-24T05:06:11;6.50;;;4.62;;
75847;SDS011;65750;47.540;19.090;2023-05-24T05:08:41;6.43;;;4.97;;
75847;SDS011;65750;47.540;19.090;2023-05-24T05:11:08;6.78;;;4.90;;
75847;SDS011;65750;47.540;19.090;2023-05-24T05:13:35;7.18;;;5.20;;
75847;SDS011;65750;47.540;19.090;2023-05-24T05:16:02;8.25;;;5.20;;
75847;SDS011;65750;47.540;19.090;2023-05-24T05:18:30;6.40;;;4.95;;
75847;SDS011;65750;47.540;19.090;2023-05-24T05:20:58;6.33;;;5.23;;
75847;SDS011;65750;47.540;19.090;2023-05-24T05:23:25;8.73;;;5.72;;
75847;SDS011;65750;47.540;19.090;2023-05-24T05:25:54;7.43;;;5.45;;
75847;SDS011;65750;47.540;19.090;2023-05-24T05:28:21;8.00;;;6.07;;
75847;SDS011;65750;47.540;19.090;2023-05-24T05:30:48;8.18;;;5.45;;
75847;SDS011;65750;47.540;19.090;2023-05-24T05:33:15;8.23;;;6.23;;
75847;SDS011;65750;47.540;19.090;2023-05-24T05:35:43;7.93;;;6.00;;
75847;SDS011;65750;47.540;19.090;2023-05-24T05:38:10;7.00;;;5.75;;
75847;SDS011;65750;47.540;19.090;2023-05-24T05:40:38;7.20;;;5.78;;
75847;SDS011;65750;47.540;19.090;2023-05-24T05:43:06;8.30;;;5.72;;
75847;SDS011;65750;47.540;19.090;2023-05-24T05:45:34;8.23;;;5.97;;
75847;SDS011;65750;47.540;19.090;2023-05-24T05:48:01;8.52;;;6.22;;
75847;SDS011;65750;47.540;19.090;2023-05-24T05:50:28;8.13;;;6.20;;
75847;SDS011;65750;47.540;19.090;2023-05-24T05:52:55;7.85;;;5.95;;
75847;SDS011;65750;47.540;19.090;2023-05-24T05:55:22;7.78;;;6.12;;
75847;SDS011;65750;47.540;19.090;2023-05-24T05:57:50;7.23;;;5.97;;
75847;SDS011;65750;47.540;19.090;2023-05-24T06:00:20;7.70;;;6.15;;
75847;SDS011;65750;47.540;19.090;2023-05-24T06:02:48;7.93;;;6.12;;
75847;SDS011;65750;47.540;19.090;2023-05-24T06:05:16;9.48;;;6.30;;
75847;SDS011;65750;47.540;19.090;2023-05-24T06:07:44;8.50;;;6.15;;
75847;SDS011;65750;47.540;19.090;2023-05-24T06:10:12;7.53;;;6.13;;
75847;SDS011;65750;47.540;19.090;2023-05-24T06:12:39;8.75;;;5.87;;
75847;SDS011;65750;47.540;19.090;2023-05-24T06:15:06;9.90;;;6.47;;
75847;SDS011;65750;47.540;19.090;2023-05-24T06:17:36;8.20;;;6.82;;
75847;SDS011;65750;47.540;19.090;2023-05-24T06:20:03;8.60;;;6.18;;
75847;SDS011;65750;47.540;19.090;2023-05-24T06:22:34;6.97;;;6.23;;
75847;SDS011;65750;47.540;19.090;2023-05-24T06:25:02;7.78;;;6.60;;
75847;SDS011;65750;47.540;19.090;2023-05-24T06:27:29;8.05;;;6.53;;
75847;SDS011;65750;47.540;19.090;2023-05-24T06:29:57;7.85;;;6.57;;
75847;SDS011;65750;47.540;19.090;2023-05-24T06:32:24;8.98;;;6.37;;
75847;SDS011;65750;47.540;19.090;2023-05-24T06:34:52;7.80;;;6.30;;
75847;SDS011;65750;47.540;19.090;2023-05-24T06:37:20;7.22;;;6.35;;
75847;SDS011;65750;47.540;19.090;2023-05-24T06:39:50;7.70;;;6.20;;
75847;SDS011;65750;47.540;19.090;2023-05-24T06:42:17;8.80;;;6.50;;
75847;SDS011;65750;47.540;19.090;2023-05-24T06:44:44;8.07;;;6.53;;
75847;SDS011;65750;47.540;19.090;2023-05-24T06:47:12;10.07;;;7.00;;
75847;SDS011;65750;47.540;19.090;2023-05-24T06:49:39;8.27;;;6.62;;
75847;SDS011;65750;47.540;19.090;2023-05-24T06:52:07;7.82;;;6.22;;
75847;SDS011;65750;47.540;19.090;2023-05-24T06:54:35;8.63;;;6.75;;
75847;SDS011;65750;47.540;19.090;2023-05-24T06:57:02;16.27;;;8.00;;
75847;SDS011;65750;47.540;19.090;2023-05-24T06:59:29;15.03;;;8.40;;
75847;SDS011;65750;47.540;19.090;2023-05-24T07:01:57;16.17;;;8.10;;
75847;SDS011;65750;47.540;19.090;2023-05-24T07:04:24;12.57;;;7.50;;
75847;SDS011;65750;47.540;19.090;2023-05-24T07:06:52;12.48;;;7.37;;
75847;SDS011;65750;47.540;19.090;2023-05-24T07:09:21;14.63;;;7.82;;
75847;SDS011;65750;47.540;19.090;2023-05-24T07:11:48;14.27;;;8.77;;
75847;SDS011;65750;47.540;19.090;2023-05-24T07:14:15;16.30;;;8.95;;
75847;SDS011;65750;47.540;19.090;2023-05-24T07:16:42;12.63;;;8.20;;
75847;SDS011;65750;47.540;19.090;2023-05-24T07:19:09;15.40;;;8.10;;
75847;SDS011;65750;47.540;19.090;2023-05-24T07:21:37;17.60;;;9.10;;
75847;SDS011;65750;47.540;19.090;2023-05-24T07:24:05;11.47;;;7.70;;
75847;SDS011;65750;47.540;19.090;2023-05-24T07:26:33;13.23;;;8.40;;
75847;SDS011;65750;47.540;19.090;2023-05-24T07:29:01;13.30;;;8.50;;
75847;SDS011;65750;47.540;19.090;2023-05-24T07:31:28;12.55;;;7.57;;
75847;SDS011;65750;47.540;19.090;2023-05-24T07:33:56;13.95;;;7.82;;
75847;SDS011;65750;47.540;19.090;2023-05-24T07:36:24;12.70;;;7.53;;
75847;SDS011;65750;47.540;19.090;2023-05-24T07:38:51;11.25;;;7.68;;
75847;SDS011;65750;47.540;19.090;2023-05-24T07:41:18;10.57;;;7.65;;
75847;SDS011;65750;47.540;19.090;2023-05-24T07:43:47;12.50;;;8.48;;
75847;SDS011;65750;47.540;19.090;2023-05-24T07:46:15;14.93;;;8.70;;
75847;SDS011;65750;47.540;19.090;2023-05-24T07:48:42;12.30;;;7.60;;
75847;SDS011;65750;47.540;19.090;2023-05-24T07:51:09;13.73;;;7.85;;
75847;SDS011;65750;47.540;19.090;2023-05-24T07:53:37;11.93;;;8.85;;
75847;SDS011;65750;47.540;19.090;2023-05-24T07:56:04;10.65;;;7.57;;
75847;SDS011;65750;47.540;19.090;2023-05-24T07:58:32;10.48;;;8.18;;
75847;SDS011;65750;47.540;19.090;2023-05-24T08:01:01;11.23;;;7.13;;
75847;SDS011;65750;47.540;19.090;2023-05-24T08:03:28;9.95;;;7.25;;
75847;SDS011;65750;47.540;19.090;2023-05-24T08:05:55;8.98;;;6.72;;
75847;SDS011;65750;47.540;19.090;2023-05-24T08:08:23;10.48;;;8.13;;
75847;SDS011;65750;47.540;19.090;2023-05-24T08:10:50;13.13;;;8.50;;
75847;SDS011;65750;47.540;19.090;2023-05-24T08:13:17;10.30;;;7.80;;
75847;SDS011;65750;47.540;19.090;2023-05-24T08:15:44;12.77;;;8.82;;
75847;SDS011;65750;47.540;19.090;2023-05-24T08:18:13;11.57;;;9.13;;
75847;SDS011;65750;47.540;19.090;2023-05-24T08:20:40;12.10;;;8.90;;
75847;SDS011;65750;47.540;19.090;2023-05-24T08:23:07;10.63;;;8.13;;
75847;SDS011;65750;47.540;19.090;2023-05-24T08:25:35;11.73;;;8.03;;
75847;SDS011;65750;47.540;19.090;2023-05-24T08:28:02;9.60;;;8.18;;
75847;SDS011;65750;47.540;19.090;2023-05-24T08:30:29;10.63;;;7.90;;
75847;SDS011;65750;47.540;19.090;2023-05-24T08:32:57;9.77;;;7.37;;
75847;SDS011;65750;47.540;19.090;2023-05-24T08:35:25;9.85;;;7.72;;
75847;SDS011;65750;47.540;19.090;2023-05-24T08:37:52;11.73;;;8.63;;
75847;SDS011;65750;47.540;19.090;2023-05-24T08:40:20;8.68;;;7.60;;
75847;SDS011;65750;47.540;19.090;2023-05-24T08:42:48;11.75;;;8.27;;
75847;SDS011;65750;47.540;19.090;2023-05-24T08:45:16;9.18;;;7.57;;
75847;SDS011;65750;47.540;19.090;2023-05-24T08:47:45;10.13;;;7.30;;
75847;SDS011;65750;47.540;19.090;2023-05-24T08:50:13;9.50;;;7.73;;
75847;SDS011;65750;47.540;19.090;2023-05-24T08:52:41;9.80;;;7.93;;
75847;SDS011;65750;47.540;19.090;2023-05-24T08:55:10;8.50;;;7.10;;
75847;SDS011;65750;47.540;19.090;2023-05-24T08:57:37;9.52;;;7.20;;
75847;SDS011;65750;47.540;19.090;2023-05-24T09:00:06;9.15;;;7.20;;
75847;SDS011;65750;47.540;19.090;2023-05-24T09:02:36;9.93;;;7.00;;
75847;SDS011;65750;47.540;19.090;2023-05-24T09:05:04;8.45;;;6.78;;
75847;SDS011;65750;47.540;19.090;2023-05-24T09:07:36;9.45;;;7.03;;
75847;SDS011;65750;47.540;19.090;2023-05-24T09:10:06;10.63;;;7.00;;
75847;SDS011;65750;47.540;19.090;2023-05-24T09:12:35;13.10;;;6.43;;
75847;SDS011;65750;47.540;19.090;2023-05-24T09:15:03;10.40;;;6.53;;
75847;SDS011;65750;47.540;19.090;2023-05-24T09:17:31;8.65;;;6.10;;
75847;SDS011;65750;47.540;19.090;2023-05-24T09:20:00;7.12;;;5.90;;
75847;SDS011;65750;47.540;19.090;2023-05-24T09:22:28;8.98;;;6.53;;
75847;SDS011;65750;47.540;19.090;2023-05-24T09:24:56;8.60;;;6.20;;
75847;SDS011;65750;47.540;19.090;2023-05-24T09:27:25;12.20;;;6.97;;
75847;SDS011;65750;47.540;19.090;2023-05-24T09:29:53;12.90;;;6.57;;
75847;SDS011;65750;47.540;19.090;2023-05-24T09:32:21;11.88;;;7.07;;
75847;SDS011;65750;47.540;19.090;2023-05-24T09:34:50;14.52;;;7.68;;
75847;SDS011;65750;47.540;19.090;2023-05-24T09:37:18;19.25;;;8.05;;
75847;SDS011;65750;47.540;19.090;2023-05-24T09:39:47;15.90;;;7.93;;
75847;SDS011;65750;47.540;19.090;2023-05-24T09:42:15;16.15;;;8.15;;
75847;SDS011;65750;47.540;19.090;2023-05-24T09:44:47;16.17;;;7.78;;
75847;SDS011;65750;47.540;19.090;2023-05-24T09:47:14;17.23;;;7.57;;
75847;SDS011;65750;47.540;19.090;2023-05-24T09:49:41;13.57;;;7.47;;
75847;SDS011;65750;47.540;19.090;2023-05-24T09:52:08;15.53;;;7.27;;
75847;SDS011;65750;47.540;19.090;2023-05-24T09:54:39;11.90;;;6.90;;
75847;SDS011;65750;47.540;19.090;2023-05-24T09:57:07;10.82;;;7.32;;
75847;SDS011;65750;47.540;19.090;2023-05-24T09:59:38;12.50;;;6.90;;
75847;SDS011;65750;47.540;19.090;2023-05-24T10:02:08;12.73;;;6.90;;
75847;SDS011;65750;47.540;19.090;2023-05-24T10:04:36;10.10;;;6.60;;
75847;SDS011;65750;47.540;19.090;2023-05-24T10:07:03;9.55;;;6.65;;
75847;SDS011;65750;47.540;19.090;2023-05-24T10:09:31;10.20;;;6.60;;
75847;SDS011;65750;47.540;19.090;2023-05-24T10:12:03;10.10;;;7.18;;
75847;SDS011;65750;47.540;19.090;2023-05-24T10:14:32;10.50;;;6.75;;
75847;SDS011;65750;47.540;19.090;2023-05-24T10:17:01;10.87;;;6.47;;
75847;SDS011;65750;47.540;19.090;2023-05-24T10:19:30;9.73;;;6.78;;
75847;SDS011;65750;47.540;19.090;2023-05-24T10:21:58;11.20;;;6.72;;
75847;SDS011;65750;47.540;19.090;2023-05-24T10:24:28;8.40;;;6.45;;
75847;SDS011;65750;47.540;19.090;2023-05-24T10:26:59;10.27;;;6.50;;
75847;SDS011;65750;47.540;19.090;2023-05-24T10:29:30;9.40;;;6.10;;
75847;SDS011;65750;47.540;19.090;2023-05-24T10:32:02;8.65;;;6.50;;
75847;SDS011;65750;47.540;19.090;2023-05-24T10:34:32;9.07;;;6.00;;
75847;SDS011;65750;47.540;19.090;2023-05-24T10:36:59;8.50;;;6.60;;
75847;SDS011;65750;47.540;19.090;2023-05-24T10:39:27;9.05;;;6.03;;
75847;SDS011;65750;47.540;19.090;2023-05-24T10:41:54;8.17;;;6.30;;
75847;SDS011;65750;47.540;19.090;2023-05-24T10:44:22;8.50;;;6.25;;
75847;SDS011;65750;47.540;19.090;2023-05-24T10:47:07;8.25;;;6.50;;
75847;SDS011;65750;47.540;19.090;2023-05-24T10:49:37;9.90;;;6.40;;
75847;SDS011;65750;47.540;19.090;2023-05-24T10:52:08;8.20;;;6.25;;
75847;SDS011;65750;47.540;19.090;2023-05-24T10:54:35;7.17;;;6.20;;
75847;SDS011;65750;47.540;19.090;2023-05-24T10:57:03;9.18;;;6.93;;
75847;SDS011;65750;47.540;19.090;2023-05-24T10:59:32;7.12;;;6.00;;
75847;SDS011;65750;47.540;19.090;2023-05-24T11:02:02;6.68;;;5.68;;
75847;SDS011;65750;47.540;19.090;2023-05-24T11:04:31;7.93;;;5.97;;
75847;SDS011;65750;47.540;19.090;2023-05-24T11:07:01;7.23;;;6.00;;
75847;SDS011;65750;47.540;19.090;2023-05-24T11:09:29;6.75;;;5.90;;
75847;SDS011;65750;47.540;19.090;2023-05-24T11:12:01;7.93;;;6.15;;
75847;SDS011;65750;47.540;19.090;2023-05-24T11:14:32;8.50;;;6.55;;
75847;SDS011;65750;47.540;19.090;2023-05-24T11:17:01;7.50;;;6.10;;
75847;SDS011;65750;47.540;19.090;2023-05-24T11:19:29;6.50;;;5.63;;
75847;SDS011;65750;47.540;19.090;2023-05-24T11:21:58;7.65;;;5.75;;
75847;SDS011;65750;47.540;19.090;2023-05-24T11:24:27;7.10;;;5.43;;
75847;SDS011;65750;47.540;19.090;2023-05-24T11:26:54;9.40;;;6.30;;
75847;SDS011;65750;47.540;19.090;2023-05-24T11:29:22;10.65;;;6.10;;
75847;SDS011;65750;47.540;19.090;2023-05-24T11:31:50;7.90;;;6.33;;
75847;SDS011;65750;47.540;19.090;2023-05-24T11:34:18;7.50;;;5.72;;
75847;SDS011;65750;47.540;19.090;2023-05-24T11:36:45;7.57;;;6.03;;
75847;SDS011;65750;47.540;19.090;2023-05-24T11:39:13;6.47;;;5.60;;
75847;SDS011;65750;47.540;19.090;2023-05-24T11:41:41;8.10;;;6.22;;
75847;SDS011;65750;47.540;19.090;2023-05-24T11:44:09;7.40;;;5.97;;
75847;SDS011;65750;47.540;19.090;2023-05-24T11:46:38;6.93;;;5.87;;
75847;SDS011;65750;47.540;19.090;2023-05-24T11:49:06;7.35;;;6.05;;
75847;SDS011;65750;47.540;19.090;2023-05-24T11:51:33;6.78;;;6.00;;
75847;SDS011;65750;47.540;19.090;2023-05-24T11:54:02;7.60;;;5.78;;
75847;SDS011;65750;47.540;19.090;2023-05-24T11:56:29;7.70;;;6.17;;
75847;SDS011;65750;47.540;19.090;2023-05-24T11:59:10;7.72;;;6.00;;
75847;SDS011;65750;47.540;19.090;2023-05-24T12:01:41;6.65;;;5.85;;
75847;SDS011;65750;47.540;19.090;2023-05-24T12:04:08;6.85;;;5.28;;
75847;SDS011;65750;47.540;19.090;2023-05-24T12:06:37;6.87;;;5.90;;
75847;SDS011;65750;47.540;19.090;2023-05-24T12:09:04;6.10;;;5.20;;
75847;SDS011;65750;47.540;19.090;2023-05-24T12:11:38;9.27;;;6.10;;
75847;SDS011;65750;47.540;19.090;2023-05-24T12:14:06;8.13;;;6.00;;
75847;SDS011;65750;47.540;19.090;2023-05-24T12:16:38;6.85;;;5.72;;
75847;SDS011;65750;47.540;19.090;2023-05-24T12:19:11;6.62;;;5.60;;
75847;SDS011;65750;47.540;19.090;2023-05-24T12:21:39;8.03;;;5.93;;
75847;SDS011;65750;47.540;19.090;2023-05-24T12:24:07;8.00;;;5.75;;
75847;SDS011;65750;47.540;19.090;2023-05-24T12:26:35;6.50;;;5.80;;
75847;SDS011;65750;47.540;19.090;2023-05-24T12:29:03;7.32;;;5.55;;
75847;SDS011;65750;47.540;19.090;2023-05-24T12:31:32;6.90;;;5.30;;
75847;SDS011;65750;47.540;19.090;2023-05-24T12:34:00;6.40;;;5.63;;
75847;SDS011;65750;47.540;19.090;2023-05-24T12:36:28;7.93;;;5.82;;
75847;SDS011;65750;47.540;19.090;2023-05-24T12:38:55;6.80;;;6.10;;
75847;SDS011;65750;47.540;19.090;2023-05-24T12:41:23;7.47;;;5.53;;
75847;SDS011;65750;47.540;19.090;2023-05-24T12:43:52;7.00;;;5.78;;
75847;SDS011;65750;47.540;19.090;2023-05-24T12:46:19;6.50;;;5.67;;
75847;SDS011;65750;47.540;19.090;2023-05-24T12:48:47;7.25;;;5.93;;
75847;SDS011;65750;47.540;19.090;2023-05-24T12:51:15;6.97;;;5.45;;
75847;SDS011;65750;47.540;19.090;2023-05-24T12:53:42;12.07;;;6.28;;
75847;SDS011;65750;47.540;19.090;2023-05-24T12:56:09;8.27;;;6.00;;
75847;SDS011;65750;47.540;19.090;2023-05-24T12:58:36;6.27;;;5.30;;
75847;SDS011;65750;47.540;19.090;2023-05-24T13:01:04;6.72;;;5.50;;
75847;SDS011;65750;47.540;19.090;2023-05-24T13:03:31;6.25;;;5.25;;
75847;SDS011;65750;47.540;19.090;2023-05-24T13:06:01;6.18;;;5.37;;
75847;SDS011;65750;47.540;19.090;2023-05-24T13:08:28;7.10;;;5.07;;
75847;SDS011;65750;47.540;19.090;2023-05-24T13:10:55;6.13;;;5.53;;
75847;SDS011;65750;47.540;19.090;2023-05-24T13:13:23;7.53;;;5.78;;
75847;SDS011;65750;47.540;19.090;2023-05-24T13:15:50;6.03;;;5.05;;
75847;SDS011;65750;47.540;19.090;2023-05-24T13:18:18;6.35;;;5.00;;
75847;SDS011;65750;47.540;19.090;2023-05-24T13:20:46;6.18;;;5.25;;
75847;SDS011;65750;47.540;19.090;2023-05-24T13:23:14;6.53;;;5.63;;
75847;SDS011;65750;47.540;19.090;2023-05-24T13:25:42;8.90;;;5.90;;
75847;SDS011;65750;47.540;19.090;2023-05-24T13:28:09;8.80;;;5.50;;
75847;SDS011;65750;47.540;19.090;2023-05-24T13:30:36;8.00;;;5.57;;
75847;SDS011;65750;47.540;19.090;2023-05-24T13:33:03;5.37;;;4.60;;
75847;SDS011;65750;47.540;19.090;2023-05-24T13:35:31;6.00;;;5.00;;
75847;SDS011;65750;47.540;19.090;2023-05-24T13:37:58;7.50;;;5.05;;
75847;SDS011;65750;47.540;19.090;2023-05-24T13:40:26;6.12;;;5.30;;
75847;SDS011;65750;47.540;19.090;2023-05-24T13:42:55;6.70;;;5.20;;
75847;SDS011;65750;47.540;19.090;2023-05-24T13:45:22;5.57;;;4.95;;
75847;SDS011;65750;47.540;19.090;2023-05-24T13:47:49;6.83;;;5.00;;
75847;SDS011;65750;47.540;19.090;2023-05-24T13:50:18;7.20;;;5.10;;
75847;SDS011;65750;47.540;19.090;2023-05-24T13:52:48;5.78;;;4.85;;
75847;SDS011;65750;47.540;19.090;2023-05-24T13:55:15;6.18;;;5.43;;
75847;SDS011;65750;47.540;19.090;2023-05-24T13:57:44;6.70;;;4.82;;
75847;SDS011;65750;47.540;19.090;2023-05-24T14:00:12;6.83;;;4.50;;
75847;SDS011;65750;47.540;19.090;2023-05-24T14:02:42;5.57;;;4.97;;
75847;SDS011;65750;47.540;19.090;2023-05-24T14:05:09;7.25;;;5.37;;
75847;SDS011;65750;47.540;19.090;2023-05-24T14:07:36;6.20;;;4.95;;
75847;SDS011;65750;47.540;19.090;2023-05-24T14:10:03;6.65;;;4.85;;
75847;SDS011;65750;47.540;19.090;2023-05-24T14:12:31;5.67;;;5.07;;
75847;SDS011;65750;47.540;19.090;2023-05-24T14:15:00;5.50;;;4.90;;
75847;SDS011;65750;47.540;19.090;2023-05-24T14:17:29;6.07;;;5.20;;
75847;SDS011;65750;47.540;19.090;2023-05-24T14:19:56;5.75;;;5.05;;
75847;SDS011;65750;47.540;19.090;2023-05-24T14:22:24;5.60;;;4.80;;
75847;SDS011;65750;47.540;19.090;2023-05-24T14:24:52;6.60;;;4.67;;
75847;SDS011;65750;47.540;19.090;2023-05-24T14:27:19;6.87;;;4.90;;
75847;SDS011;65750;47.540;19.090;2023-05-24T14:29:46;6.45;;;4.45;;
75847;SDS011;65750;47.540;19.090;2023-05-24T14:32:14;6.35;;;4.80;;
75847;SDS011;65750;47.540;19.090;2023-05-24T14:34:42;7.30;;;4.87;;
75847;SDS011;65750;47.540;19.090;2023-05-24T14:37:09;6.23;;;4.50;;